Terminal Aerodrome Forecast
Issued by NWS

Home | Current Version | Previous Version | Text Only | Print | Product List | Glossary On
Versions: 1 2 3 4 5 6 7 8 9 10 11 12 13 14 15 16 17 18 19 20 21 22 23 24 25 26 27 28 29 30 31 32 33 34 35 36 37 38 39 40 41 42 43
000
FTUS45 KBOU 020535
TAFBJC
TAF
KBJC 020535Z 0206/0306 VRB04KT P6SM FEW100 SCT140 BKN220
     FM020900 25006KT P6SM FEW150 SCT220
     FM021400 28008KT P6SM FEW120 SCT200
     FM022000 34012KT P6SM SCT080 BKN150
     FM022100 29007KT P6SM VCTS SCT070CB BKN120
     FM030300 25007KT P6SM SCT110 BKN200=

USA.gov is the U.S. government's official web portal to all federal, state and local government web resources and services.